Time;durP1;ratioP1;P1;durP2;ratioP2;P2;SDS_P1;SDS_P2;PMS_P1;PMS_P2;Temp;Humidity;BMP_temperature;BMP_pressure;BME280_temperature;BME280_humidity;BME280_pressure;Samples;Min_cycle;Max_cycle;Signal;HPM_P1;HPM_P2
2022/08/10 00:00:21;;;;;;;;;6.50;6.00;;;;;26.69;35.66;101625.97;2105099;27;47617;-64
2022/08/10 00:01:21;;;;;;;;;6.80;6.20;;;;;26.67;35.36;101626.06;2112626;27;47811;-64
2022/08/10 00:02:21;;;;;;;;;7.00;7.00;;;;;26.65;35.61;101617.13;2112894;27;47760;-64
2022/08/10 00:03:22;;;;;;;;;5.25;5.25;;;;;26.66;36.11;101626.16;2104790;27;47910;-64
2022/08/10 00:04:22;;;;;;;;;5.25;5.00;;;;;26.65;35.29;101621.72;2113200;27;47866;-64
2022/08/10 00:05:24;;;;;;;;;4.00;3.00;;;;;26.63;35.79;101624.56;2112766;27;46808;-64
2022/08/10 00:06:25;;;;;;;;;6.40;6.40;;;;;26.63;36.09;101618.25;2104882;27;48001;-64
2022/08/10 00:07:25;;;;;;;;;10.00;6.00;;;;;26.61;36.43;101620.22;2105362;27;47023;-63
2022/08/10 00:08:26;;;;;;;;;7.00;6.50;;;;;26.59;35.68;101614.88;2105234;27;47658;-62
2022/08/10 00:09:26;;;;;;;;;5.50;5.50;;;;;26.59;35.72;101614.00;2104792;27;47543;-64
2022/08/10 00:10:27;;;;;;;;;6.00;6.00;;;;;26.58;35.66;101617.72;2104922;27;47115;-63
2022/08/10 00:11:27;;;;;;;;;5.50;5.50;;;;;26.58;35.54;101615.00;2105043;27;48040;-63
2022/08/10 00:12:27;;;;;;;;;7.00;7.00;;;;;26.56;35.68;101620.56;2104832;27;47483;-65
2022/08/10 00:13:28;;;;;;;;;6.75;6.25;;;;;26.55;36.21;101616.09;2111981;27;47745;-63
2022/08/10 00:14:29;;;;;;;;;6.60;5.00;;;;;26.54;36.57;101618.91;2112055;27;47513;-65
2022/08/10 00:15:29;;;;;;;;;7.75;7.75;;;;;26.51;35.96;101614.56;2104729;27;47692;-64
2022/08/10 00:16:30;;;;;;;;;7.00;7.00;;;;;26.49;35.96;101616.56;2104613;27;47429;-64
2022/08/10 00:17:30;;;;;;;;;4.00;4.00;;;;;26.50;35.91;101622.88;2104858;27;48036;-64
2022/08/10 00:18:31;;;;;;;;;5.00;5.00;;;;;26.49;36.29;101619.28;2104862;27;47321;-64
2022/08/10 00:19:32;;;;;;;;;6.20;6.20;;;;;26.47;35.88;101612.22;2104833;27;47433;-64
2022/08/10 00:20:32;;;;;;;;;4.75;4.50;;;;;26.46;36.35;101614.06;2104326;28;47996;-64
2022/08/10 00:21:32;;;;;;;;;5.50;4.75;;;;;26.47;35.94;101610.34;2104194;28;47629;-64
2022/08/10 00:22:33;;;;;;;;;7.25;6.00;;;;;26.46;36.44;101613.19;2105045;27;47231;-65
2022/08/10 00:23:34;;;;;;;;;5.00;5.00;;;;;26.44;36.28;101616.03;2104808;27;47397;-64
2022/08/10 00:24:35;;;;;;;;;6.20;5.00;;;;;26.43;36.06;101611.56;2104862;27;47452;-63
2022/08/10 00:25:35;;;;;;;;;6.25;6.25;;;;;26.42;36.54;101617.97;2104621;27;47441;-64
2022/08/10 00:26:36;;;;;;;;;5.25;5.25;;;;;26.40;36.60;101619.94;2104762;27;47425;-63
2022/08/10 00:27:36;;;;;;;;;8.00;6.75;;;;;26.39;36.09;101610.91;2104744;27;47691;-64
2022/08/10 00:28:37;;;;;;;;;6.25;6.25;;;;;26.38;36.62;101619.19;2104713;27;47606;-64
2022/08/10 00:29:38;;;;;;;;;6.00;6.00;;;;;26.37;36.17;101614.72;2105081;27;47716;-63
2022/08/10 00:30:38;;;;;;;;;4.50;4.25;;;;;26.36;35.97;101613.88;2104430;27;47674;-63
2022/08/10 00:31:39;;;;;;;;;6.00;6.00;;;;;26.35;36.63;101622.13;2104805;27;47600;-64
2022/08/10 00:32:39;;;;;;;;;6.00;5.75;;;;;26.34;36.68;101617.66;2105286;27;47808;-64
2022/08/10 00:33:39;;;;;;;;;5.00;5.00;;;;;26.33;36.74;101608.63;2104976;27;47504;-64
2022/08/10 00:34:40;;;;;;;;;7.00;6.00;;;;;26.33;36.03;101621.38;2104618;27;47822;-64
2022/08/10 00:35:40;;;;;;;;;4.00;4.00;;;;;26.31;36.17;101613.31;2104664;28;47933;-65
2022/08/10 00:36:41;;;;;;;;;5.50;5.50;;;;;26.32;36.28;101619.63;2105079;27;47519;-64
2022/08/10 00:37:41;;;;;;;;;6.00;6.00;;;;;26.31;36.08;101618.75;2104772;27;47665;-64
2022/08/10 00:38:41;;;;;;;;;8.00;6.75;;;;;26.32;36.84;101616.91;2105088;28;47319;-63
2022/08/10 00:39:42;;;;;;;;;6.75;6.75;;;;;26.30;36.18;101611.56;2104918;27;47254;-64
2022/08/10 00:40:42;;;;;;;;;7.50;6.75;;;;;26.29;36.61;101615.25;2104362;27;48208;-63
2022/08/10 00:41:43;;;;;;;;;6.25;6.25;;;;;26.28;36.79;101610.78;2105228;27;47520;-62
2022/08/10 00:42:43;;;;;;;;;6.00;6.00;;;;;26.27;36.19;101617.22;2104773;27;47634;-63
2022/08/10 00:43:44;;;;;;;;;7.00;7.00;;;;;26.28;36.73;101607.22;2104547;27;47435;-63
2022/08/10 00:44:48;;;;;;;;;5.00;5.00;;;;;26.27;36.90;101619.06;2104779;27;48480;-64
2022/08/10 00:45:49;;;;;;;;;6.00;6.00;;;;;26.27;36.30;101610.91;2104782;27;48154;-64
2022/08/10 00:46:49;;;;;;;;;5.75;5.75;;;;;26.25;36.96;101612.88;2104790;27;47128;-64
2022/08/10 00:47:50;;;;;;;;;6.00;6.00;;;;;26.26;36.51;101611.91;2104880;27;47424;-64
2022/08/10 00:48:50;;;;;;;;;5.50;5.50;;;;;26.25;36.95;101604.72;2104847;27;47311;-64
2022/08/10 00:49:51;;;;;;;;;5.25;5.25;;;;;26.26;36.13;101603.72;2105040;27;47573;-64
2022/08/10 00:50:51;;;;;;;;;8.50;8.50;;;;;26.25;36.64;101607.44;2104709;27;47913;-64
2022/08/10 00:51:52;;;;;;;;;6.75;6.75;;;;;26.25;37.09;101602.88;2104526;28;48101;-64
2022/08/10 00:52:53;;;;;;;;;5.00;5.00;;;;;26.25;36.35;101607.44;2105193;28;48094;-64
2022/08/10 00:53:53;;;;;;;;;6.00;6.00;;;;;26.23;37.12;101602.13;2105827;27;47812;-63
2022/08/10 00:54:55;;;;;;;;;5.50;5.00;;;;;26.23;36.92;101607.56;2105458;28;47398;-64
2022/08/10 00:55:55;;;;;;;;;5.80;5.40;;;;;26.22;36.90;101602.22;2105610;28;47445;-64
2022/08/10 00:56:56;;;;;;;;;6.50;6.50;;;;;26.21;36.85;101605.94;2105466;28;47422;-63
2022/08/10 00:57:58;;;;;;;;;4.80;4.80;;;;;26.21;36.80;101612.25;2105651;28;47924;-64
2022/08/10 00:58:58;;;;;;;;;2.60;2.60;;;;;26.20;37.01;101606.91;2106422;27;47554;-63
2022/08/10 00:59:58;;;;;;;;;5.25;5.25;;;;;26.19;36.98;101608.78;2105874;27;48076;-62
2022/08/10 01:00:59;;;;;;;;;7.25;6.75;;;;;26.18;36.94;101601.59;2106117;27;47941;-63
2022/08/10 01:02:00;;;;;;;;;6.00;5.00;;;;;26.17;36.47;101598.97;2096345;28;45773;-63
2022/08/10 01:03:00;;;;;;;;;5.50;5.00;;;;;26.15;36.76;101598.22;2096598;28;47365;-64
2022/08/10 01:04:01;;;;;;;;;6.00;6.00;;;;;26.15;36.67;101607.25;2096669;28;47575;-61
2022/08/10 01:05:11;;;;;;;;;5.60;5.60;;;;;26.13;36.61;101601.03;2096316;28;45786;-63
2022/08/10 01:06:22;;;;;;;;;4.80;4.80;;;;;26.11;37.04;101600.28;2096591;28;47854;-64
2022/08/10 01:07:32;;;;;;;;;5.00;5.00;;;;;26.09;37.24;101605.84;2097013;28;47638;-64
2022/08/10 01:08:42;;;;;;;;;5.60;5.60;;;;;26.08;36.63;101608.69;2096270;28;47260;-65
2022/08/10 01:10:01;;;;;;;;;6.00;5.00;;;;;26.07;37.06;101609.66;2096882;28;47839;-64
2022/08/10 01:11:10;;;;;;;;;5.40;5.40;;;;;26.06;36.65;101608.78;2088566;28;47945;-64
2022/08/10 01:12:31;;;;;;;;;7.60;7.60;;;;;26.06;36.42;101606.06;2089101;28;47580;-63
2022/08/10 01:13:47;;;;;;;;;7.20;7.00;;;;;26.05;37.18;101606.19;2088467;28;48187;-63
2022/08/10 01:15:02;;;;;;;;;3.00;3.00;;;;;26.03;37.32;101600.84;2089994;28;47557;-63
2022/08/10 01:16:31;;;;;;;;;7.60;6.40;;;;;26.01;37.23;101607.38;2088255;28;47533;-64
2022/08/10 01:17:51;;;;;;;;;7.00;7.00;;;;;26.00;37.24;101597.47;2067142;28;47795;-63
2022/08/10 01:19:23;;;;;;;;;7.00;6.00;;;;;26.00;37.22;101597.47;2071882;28;47554;-63
2022/08/10 01:20:44;;;;;;;;;7.00;5.80;;;;;25.99;37.41;101595.75;2039328;28;47226;-63
2022/08/10 01:21:57;;;;;;;;;5.80;5.80;;;;;25.98;37.11;101604.88;2047783;28;47540;-63
2022/08/10 01:23:22;;;;;;;;;5.40;5.00;;;;;25.97;36.98;101601.28;2047013;28;47510;-63
2022/08/10 01:24:56;;;;;;;;;5.60;4.80;;;;;25.96;37.51;101590.53;2047808;28;47357;-63
2022/08/10 01:26:08;;;;;;;;;5.20;5.20;;;;;25.94;37.12;101598.81;2046882;28;47724;-63
2022/08/10 01:27:17;;;;;;;;;5.40;5.00;;;;;25.94;37.38;101601.53;2047448;28;47207;-64
2022/08/10 01:28:33;;;;;;;;;6.20;6.00;;;;;25.94;37.11;101601.53;2047367;28;47262;-63
2022/08/10 01:29:52;;;;;;;;;4.40;4.40;;;;;25.93;36.88;101588.03;2045287;28;47466;-63
2022/08/10 01:30:57;;;;;;;;;6.60;6.20;;;;;25.92;37.17;101600.78;2045253;28;46124;-63
2022/08/10 01:32:03;;;;;;;;;5.20;4.80;;;;;25.91;36.90;101596.28;2047505;28;48146;-64
2022/08/10 01:33:11;;;;;;;;;6.00;6.00;;;;;25.91;37.67;101596.28;2047441;28;47699;-64
2022/08/10 01:34:22;;;;;;;;;5.40;5.40;;;;;25.89;37.12;101598.25;2062873;28;47286;-64
2022/08/10 01:35:33;;;;;;;;;6.40;5.20;;;;;25.88;37.62;101601.94;2063584;28;47576;-63
2022/08/10 01:36:43;;;;;;;;;4.40;4.40;;;;;25.85;37.62;101596.75;2063622;28;47860;-63
2022/08/10 01:38:05;;;;;;;;;5.60;5.00;;;;;25.84;37.14;101600.44;2064040;28;48124;-62
2022/08/10 01:39:07;;;;;;;;;6.00;6.00;;;;;25.84;37.55;101599.56;2063405;28;48068;-63
2022/08/10 01:40:12;;;;;;;;;6.20;6.20;;;;;25.83;37.17;101595.13;2063461;28;47426;-63
2022/08/10 01:41:23;;;;;;;;;5.40;4.40;;;;;25.83;37.59;101589.69;2063345;28;48604;-63
2022/08/10 01:42:29;;;;;;;;;6.40;6.00;;;;;25.81;37.44;101596.09;2063290;28;47874;-64
2022/08/10 01:43:32;;;;;;;;;6.40;6.20;;;;;25.80;37.78;101593.50;2054894;28;47607;-64
2022/08/10 01:44:39;;;;;;;;;6.80;6.80;;;;;25.78;37.24;101590.84;2055467;28;47340;-63
2022/08/10 01:45:43;;;;;;;;;5.80;5.80;;;;;25.78;37.42;101587.28;2063403;28;47530;-63
2022/08/10 01:46:50;;;;;;;;;5.20;5.20;;;;;25.79;37.24;101589.00;2063471;28;47518;-63
2022/08/10 01:49:19;;;;;;;;;7.20;5.60;;;;;25.75;37.92;101590.22;2063048;28;47355;-63
2022/08/10 01:50:32;;;;;;;;;5.20;5.20;;;;;25.74;37.34;101592.06;2063605;28;47503;-63
2022/08/10 01:51:39;;;;;;;;;6.00;6.00;;;;;25.72;37.47;101588.59;2062978;28;47601;-64
2022/08/10 01:52:42;;;;;;;;;4.40;4.40;;;;;25.71;37.91;101592.28;2064138;28;46802;-64
2022/08/10 01:53:50;;;;;;;;;8.80;8.20;;;;;25.71;37.82;101589.56;2059000;28;47702;-62
2022/08/10 01:54:54;;;;;;;;;6.40;6.00;;;;;25.70;37.91;101590.56;2059185;28;47732;-64
2022/08/10 01:55:56;;;;;;;;;6.00;6.00;;;;;25.70;37.42;101590.56;2079481;28;47452;-62
2022/08/10 01:56:58;;;;;;;;;6.80;6.80;;;;;25.69;37.90;101585.22;2079817;28;47734;-62
2022/08/10 01:58:03;;;;;;;;;6.00;6.00;;;;;25.70;37.35;101587.84;2086856;28;47412;-63
2022/08/10 01:59:08;;;;;;;;;6.00;6.00;;;;;25.70;37.76;101590.56;2105622;28;47911;-62
2022/08/10 02:00:10;;;;;;;;;5.80;5.80;;;;;25.70;37.55;101593.28;2105603;27;47802;-63
2022/08/10 02:01:15;;;;;;;;;5.00;5.00;;;;;25.69;37.97;101579.78;2105916;27;47568;-64
2022/08/10 02:02:16;;;;;;;;;5.00;5.00;;;;;25.68;37.62;101583.47;2105275;27;47993;-62
2022/08/10 02:03:20;;;;;;;;;6.40;5.80;;;;;25.67;37.57;101576.28;2105796;27;47697;-63
2022/08/10 02:04:23;;;;;;;;;6.20;6.20;;;;;25.65;37.67;101587.25;2105713;27;47973;-63
2022/08/10 02:05:26;;;;;;;;;5.40;5.40;;;;;25.64;37.74;101579.19;2105377;28;47222;-63
2022/08/10 02:06:29;;;;;;;;;5.00;5.00;;;;;25.63;37.95;101585.63;2104991;28;47241;-63
2022/08/10 02:07:31;;;;;;;;;4.60;3.80;;;;;25.63;38.00;101580.19;2105669;27;48011;-63
2022/08/10 02:08:34;;;;;;;;;4.00;4.00;;;;;25.61;37.96;101582.16;2105734;27;47648;-64
2022/08/10 02:09:41;;;;;;;;;8.00;5.00;;;;;25.59;38.02;101579.53;2105603;27;47385;-63
2022/08/10 02:10:45;;;;;;;;;5.00;5.00;;;;;25.59;38.00;101581.38;2105622;27;47548;-62
2022/08/10 02:11:47;;;;;;;;;5.40;5.40;;;;;25.58;37.71;101579.66;2105543;27;47378;-63
2022/08/10 02:12:49;;;;;;;;;4.40;4.40;;;;;25.56;38.47;101579.75;2105815;27;47821;-65
2022/08/10 02:13:51;;;;;;;;;8.60;7.20;;;;;25.55;38.09;101583.47;2105732;27;47272;-63
2022/08/10 02:14:59;;;;;;;;;5.80;5.80;;;;;25.55;37.77;101585.31;2105865;27;47649;-64
2022/08/10 02:16:02;;;;;;;;;6.80;5.20;;;;;25.53;37.94;101582.66;2105652;27;47847;-64
2022/08/10 02:17:06;;;;;;;;;5.60;5.00;;;;;25.53;38.26;101585.41;2113554;27;47159;-63
2022/08/10 02:18:08;;;;;;;;;5.40;5.40;;;;;25.52;38.06;101587.25;2113161;27;47847;-64
2022/08/10 02:19:14;;;;;;;;;5.60;5.60;;;;;25.51;37.92;101588.22;2105346;27;47682;-64
2022/08/10 02:20:19;;;;;;;;;5.00;5.00;;;;;25.50;37.93;101582.91;2105902;27;47305;-66
2022/08/10 02:21:21;;;;;;;;;7.00;5.60;;;;;25.50;37.96;101582.91;2105478;27;48112;-65
2022/08/10 02:22:23;;;;;;;;;4.00;4.00;;;;;25.48;38.28;101582.16;2105580;27;47597;-63
2022/08/10 02:23:27;;;;;;;;;6.20;6.20;;;;;25.48;38.20;101579.41;2105932;27;48251;-65
2022/08/10 02:24:28;;;;;;;;;6.40;6.40;;;;;25.47;38.02;101574.97;2105543;27;47287;-64
2022/08/10 02:25:31;;;;;;;;;6.25;5.25;;;;;25.47;38.50;101581.28;2105483;27;47651;-64
2022/08/10 02:26:32;;;;;;;;;7.00;6.20;;;;;25.48;38.45;101587.56;2105539;27;47692;-64
2022/08/10 02:27:33;;;;;;;;;5.80;5.00;;;;;25.48;38.23;101583.00;2105527;27;47527;-63
2022/08/10 02:28:36;;;;;;;;;6.00;6.00;;;;;25.48;38.53;101580.28;2105659;27;47765;-63
2022/08/10 02:29:39;;;;;;;;;4.20;4.20;;;;;25.49;38.30;101589.31;2105419;27;47060;-63
2022/08/10 02:30:41;;;;;;;;;5.40;5.40;;;;;25.48;38.56;101588.44;2105567;27;47412;-64
2022/08/10 02:31:43;;;;;;;;;5.40;5.40;;;;;25.48;38.23;101593.00;2105505;27;47571;-63
2022/08/10 02:32:46;;;;;;;;;2.80;2.80;;;;;25.46;38.54;101587.69;2105478;27;47841;-63
2022/08/10 02:33:49;;;;;;;;;5.80;5.80;;;;;25.47;38.15;101597.59;2105412;27;48213;-63
2022/08/10 02:34:51;;;;;;;;;5.20;5.20;;;;;25.46;38.23;101594.97;2105748;27;47378;-64
2022/08/10 02:35:53;;;;;;;;;4.60;4.60;;;;;25.44;38.59;101584.22;2105612;27;47491;-63
2022/08/10 02:36:57;;;;;;;;;5.60;5.60;;;;;25.43;38.57;101581.59;2105567;27;47229;-64
2022/08/10 02:38:03;;;;;;;;;4.40;4.40;;;;;25.42;38.47;101579.88;2105511;27;47871;-63
2022/08/10 02:39:06;;;;;;;;;3.60;3.60;;;;;25.41;38.59;101584.44;2105546;27;47607;-64
2022/08/10 02:40:08;;;;;;;;;6.00;5.80;;;;;25.40;38.34;101585.38;2104103;28;46201;-63
2022/08/10 02:41:16;;;;;;;;;7.00;6.80;;;;;25.39;38.43;101590.94;2104272;28;47811;-65
2022/08/10 02:42:24;;;;;;;;;4.80;4.80;;;;;25.36;38.35;101585.72;2105154;28;47576;-63
2022/08/10 02:43:30;;;;;;;;;6.00;5.80;;;;;25.36;38.61;101585.72;2105195;27;47695;-63
2022/08/10 02:44:50;;;;;;;;;6.60;6.60;;;;;25.34;38.44;101588.53;2097217;28;48079;-63
2022/08/10 02:46:04;;;;;;;;;7.00;6.20;;;;;25.33;38.72;101594.09;2105053;28;44964;-63
2022/08/10 02:47:24;;;;;;;;;6.40;6.40;;;;;25.32;38.73;101592.34;2105453;27;47249;-63
2022/08/10 02:48:32;;;;;;;;;7.20;7.00;;;;;25.29;38.88;101592.56;2105104;27;47305;-64
2022/08/10 02:49:47;;;;;;;;;5.80;5.20;;;;;25.27;38.31;101589.94;2105106;27;47867;-63
2022/08/10 02:50:56;;;;;;;;;7.00;7.00;;;;;25.26;38.88;101593.63;2104402;28;47875;-64
2022/08/10 02:52:01;;;;;;;;;6.00;5.80;;;;;25.24;38.43;101585.59;2105204;27;48065;-63
2022/08/10 02:53:10;;;;;;;;;6.80;6.80;;;;;25.25;38.65;101594.63;2104846;28;47282;-63
2022/08/10 02:54:19;;;;;;;;;7.40;7.40;;;;;25.23;38.66;101591.13;2096606;28;47299;-63
2022/08/10 02:55:32;;;;;;;;;5.80;5.20;;;;;25.23;38.79;101591.13;2103172;28;47990;-64
2022/08/10 02:56:38;;;;;;;;;11.20;9.80;;;;;25.22;38.72;101594.84;2105540;27;47872;-64
2022/08/10 02:57:43;;;;;;;;;7.20;7.20;;;;;25.21;38.70;101593.09;2105516;27;47943;-64
2022/08/10 02:58:49;;;;;;;;;6.80;6.80;;;;;25.18;38.67;101596.91;2113158;27;47380;-63
2022/08/10 02:59:55;;;;;;;;;8.00;8.00;;;;;25.18;38.66;101596.03;2112587;27;47851;-64
2022/08/10 03:00:58;;;;;;;;;9.40;8.60;;;;;25.18;38.65;101596.91;2105475;27;47446;-64
2022/08/10 03:02:02;;;;;;;;;9.00;7.40;;;;;25.16;38.77;101596.13;2105673;27;47401;-63
2022/08/10 03:03:04;;;;;;;;;10.00;10.00;;;;;25.15;38.82;101593.50;2105511;27;47392;-63
2022/08/10 03:04:10;;;;;;;;;9.80;9.00;;;;;25.14;38.94;101595.34;2105595;27;47108;-63
2022/08/10 03:05:13;;;;;;;;;10.40;10.40;;;;;25.12;38.86;101596.44;2105710;27;47334;-63
2022/08/10 03:06:19;;;;;;;;;8.80;8.00;;;;;25.12;38.89;101591.00;2105389;27;47634;-62
2022/08/10 03:07:22;;;;;;;;;9.20;8.80;;;;;25.10;38.89;101593.84;2105508;27;48438;-63
2022/08/10 03:08:27;;;;;;;;;11.60;11.60;;;;;25.10;39.14;101593.84;2105760;27;47723;-64
2022/08/10 03:09:32;;;;;;;;;10.40;10.40;;;;;25.09;39.05;101597.53;2095707;28;48277;-63
2022/08/10 03:10:39;;;;;;;;;15.20;13.20;;;;;25.09;38.80;101600.25;2096288;28;47649;-64
2022/08/10 03:11:42;;;;;;;;;13.40;13.40;;;;;25.09;38.80;101596.66;2105138;27;47635;-63
2022/08/10 03:12:44;;;;;;;;;15.00;15.00;;;;;25.07;39.32;101591.34;2105031;27;47535;-64
2022/08/10 03:13:46;;;;;;;;;13.60;12.80;;;;;25.08;39.12;101597.63;2104725;27;47671;-63
2022/08/10 03:14:47;;;;;;;;;12.00;12.00;;;;;25.06;38.72;101597.75;2104725;27;48065;-64
2022/08/10 03:15:49;;;;;;;;;15.20;13.40;;;;;25.07;39.04;101595.91;2105341;28;47891;-66
2022/08/10 03:16:53;;;;;;;;;8.80;8.80;;;;;25.06;39.19;101602.31;2103725;28;47289;-65
2022/08/10 03:17:55;;;;;;;;;11.80;11.80;;;;;25.03;39.20;101581.66;2104333;28;47485;-64
2022/08/10 03:18:59;;;;;;;;;12.00;11.00;;;;;25.03;39.21;101594.34;2105043;27;47422;-63
2022/08/10 03:20:01;;;;;;;;;11.80;11.80;;;;;25.03;39.02;101597.06;2105365;27;47628;-64
2022/08/10 03:21:03;;;;;;;;;11.60;11.20;;;;;24.99;38.85;101588.22;2105215;27;47481;-64
2022/08/10 03:22:04;;;;;;;;;14.80;13.80;;;;;24.97;39.03;101592.03;2104982;28;47460;-63
2022/08/10 03:23:11;;;;;;;;;12.80;12.60;;;;;24.95;39.13;101595.72;2103574;28;47805;-63
2022/08/10 03:24:12;;;;;;;;;14.40;14.40;;;;;24.91;38.90;101588.78;2105358;27;47580;-64
2022/08/10 03:25:13;;;;;;;;;13.40;13.40;;;;;24.93;39.45;101599.53;2104198;28;47326;-63
2022/08/10 03:26:15;;;;;;;;;14.00;14.00;;;;;24.92;39.26;101589.63;2104547;28;47588;-63
2022/08/10 03:27:16;;;;;;;;;12.00;12.00;;;;;24.92;39.35;101589.63;2104869;27;47398;-62
2022/08/10 03:28:18;;;;;;;;;8.20;7.40;;;;;24.90;39.17;101589.75;2105379;27;47761;-63
2022/08/10 03:29:20;;;;;;;;;12.80;12.80;;;;;24.90;39.34;101584.31;2105114;27;47649;-63
2022/08/10 03:30:21;;;;;;;;;10.00;10.00;;;;;24.89;39.33;101585.25;2104697;28;46077;-64
2022/08/10 03:31:22;;;;;;;;;12.50;12.50;;;;;24.89;39.20;101582.53;2104690;28;47476;-64
2022/08/10 03:32:24;;;;;;;;;14.00;13.80;;;;;24.88;39.13;101586.25;2105090;27;48251;-64
2022/08/10 03:33:29;;;;;;;;;12.40;10.80;;;;;24.88;39.23;101583.53;2105001;27;47698;-64
2022/08/10 03:34:31;;;;;;;;;13.40;13.40;;;;;24.87;39.33;101579.06;2105603;27;46837;-64
2022/08/10 03:35:31;;;;;;;;;16.00;14.20;;;;;24.85;39.15;101583.75;2105020;27;47578;-64
2022/08/10 03:36:32;;;;;;;;;14.25;14.25;;;;;24.82;39.54;101578.53;2105224;27;47241;-64
2022/08/10 03:37:32;;;;;;;;;15.75;15.25;;;;;24.79;39.65;101581.44;2104912;27;47648;-64
2022/08/10 03:38:33;;;;;;;;;13.00;11.75;;;;;24.78;39.81;101587.84;2105304;27;46318;-63
2022/08/10 03:39:34;;;;;;;;;13.25;13.00;;;;;24.76;39.88;101589.78;2105100;27;47668;-63
2022/08/10 03:40:36;;;;;;;;;13.50;11.75;;;;;24.76;39.38;101580.75;2104794;27;47085;-63
2022/08/10 03:41:40;;;;;;;;;13.00;13.00;;;;;24.75;39.53;101585.31;2105105;27;47561;-63
2022/08/10 03:42:43;;;;;;;;;13.80;12.60;;;;;24.74;39.43;101591.72;2103730;28;47580;-64
2022/08/10 03:43:46;;;;;;;;;13.20;12.00;;;;;24.74;39.60;101588.16;2104420;28;47583;-64
2022/08/10 03:44:48;;;;;;;;;12.80;12.80;;;;;24.72;39.62;101596.41;2104708;28;47022;-64
2022/08/10 03:45:52;;;;;;;;;12.60;12.20;;;;;24.71;40.33;101591.06;2111931;27;47310;-62
2022/08/10 03:46:54;;;;;;;;;15.00;14.00;;;;;24.71;39.80;101594.66;2111827;27;47883;-63
2022/08/10 03:47:56;;;;;;;;;12.00;12.00;;;;;24.70;39.72;101590.22;2105301;27;47615;-63
2022/08/10 03:49:01;;;;;;;;;12.60;11.00;;;;;24.69;39.71;101593.91;2104780;27;47873;-63
2022/08/10 03:50:03;;;;;;;;;12.20;11.00;;;;;24.70;39.79;101589.34;2104816;27;47629;-62
2022/08/10 03:51:04;;;;;;;;;15.60;13.40;;;;;24.70;39.83;101597.47;2104580;28;47382;-65
2022/08/10 03:52:05;;;;;;;;;11.50;11.00;;;;;24.71;40.02;101591.06;2104334;28;47600;-64
2022/08/10 03:53:06;;;;;;;;;11.60;11.60;;;;;24.70;39.72;101590.22;2105023;27;47889;-63
2022/08/10 03:54:07;;;;;;;;;10.50;10.50;;;;;24.71;39.90;101593.78;2104415;28;47359;-64
2022/08/10 03:55:08;;;;;;;;;12.00;11.40;;;;;24.69;39.92;101593.03;2098903;28;46707;-63
2022/08/10 03:56:09;;;;;;;;;9.80;9.00;;;;;24.70;39.59;101592.06;2104920;28;45764;-64
2022/08/10 03:57:10;;;;;;;;;8.75;8.75;;;;;24.69;39.67;101596.63;2104780;27;47303;-64
2022/08/10 03:58:11;;;;;;;;;10.20;10.20;;;;;24.69;39.69;101596.63;2104584;27;47542;-62
2022/08/10 03:59:13;;;;;;;;;10.20;10.00;;;;;24.68;40.14;101594.88;2105042;27;47595;-63
2022/08/10 04:00:17;;;;;;;;;6.80;6.80;;;;;24.69;39.62;101593.91;2104871;27;47461;-63
2022/08/10 04:01:18;;;;;;;;;6.00;6.00;;;;;24.68;39.89;101594.88;2105103;27;47759;-63
2022/08/10 04:02:19;;;;;;;;;5.40;5.40;;;;;24.68;39.65;101600.31;2105177;27;47813;-64
2022/08/10 04:03:19;;;;;;;;;8.00;8.00;;;;;24.67;39.54;101590.41;2105050;27;47607;-63
2022/08/10 04:04:20;;;;;;;;;7.25;5.75;;;;;24.66;39.88;101591.41;2105005;27;47566;-63
2022/08/10 04:05:20;;;;;;;;;8.00;6.50;;;;;24.64;39.82;101594.19;2104274;28;47488;-64
2022/08/10 04:06:20;;;;;;;;;8.00;8.00;;;;;24.64;40.11;101596.91;2104484;28;47532;-64
2022/08/10 04:07:21;;;;;;;;;8.00;7.00;;;;;24.62;39.65;101587.13;2104974;28;47460;-64
2022/08/10 04:08:22;;;;;;;;;7.75;7.75;;;;;24.62;40.00;101589.84;2104915;27;47970;-63
2022/08/10 04:09:29;;;;;;;;;3.60;3.60;;;;;24.61;40.31;101596.25;2105014;27;47090;-64
2022/08/10 04:10:30;;;;;;;;;8.80;7.60;;;;;24.60;39.91;101598.09;2104251;28;47468;-63
2022/08/10 04:11:30;;;;;;;;;6.50;5.50;;;;;24.60;39.90;101591.78;2104207;28;47842;-64
2022/08/10 04:12:30;;;;;;;;;4.50;4.50;;;;;24.60;40.21;101597.22;2104944;27;48044;-64
2022/08/10 04:13:31;;;;;;;;;7.00;6.50;;;;;24.59;40.05;101606.34;2105129;27;47439;-64
2022/08/10 04:14:31;;;;;;;;;8.00;7.00;;;;;24.57;40.07;101598.28;2105094;27;47522;-63
2022/08/10 04:15:32;;;;;;;;;5.00;5.00;;;;;24.57;39.96;101598.28;2104989;27;47589;-62
2022/08/10 04:16:32;;;;;;;;;6.75;5.25;;;;;24.57;40.06;101600.13;2104759;28;47324;-64
2022/08/10 04:17:32;;;;;;;;;6.50;6.50;;;;;24.58;40.22;101604.59;2095811;28;47093;-65
2022/08/10 04:18:33;;;;;;;;;6.00;5.25;;;;;24.57;40.05;101597.44;2096145;28;47725;-63
2022/08/10 04:19:41;;;;;;;;;5.00;5.00;;;;;24.56;40.13;101596.56;2103323;28;47186;-64
2022/08/10 04:21:14;;;;;;;;;5.80;4.80;;;;;24.56;40.05;101601.13;2104836;27;47614;-63
2022/08/10 04:22:20;;;;;;;;;7.00;7.00;;;;;24.55;40.23;101602.97;2104842;27;47609;-64
2022/08/10 04:23:24;;;;;;;;;6.60;6.40;;;;;24.55;40.07;101597.53;2096704;28;47615;-64
2022/08/10 04:24:26;;;;;;;;;4.60;4.60;;;;;24.55;39.88;101599.38;2103261;28;48204;-64
2022/08/10 04:25:27;;;;;;;;;4.60;4.60;;;;;24.53;39.96;101594.06;2104596;27;48095;-64
2022/08/10 04:26:27;;;;;;;;;4.50;4.50;;;;;24.54;40.00;101595.78;2104976;28;47321;-65
2022/08/10 04:27:28;;;;;;;;;5.00;5.00;;;;;24.54;40.08;101595.78;2104772;28;47253;-63
2022/08/10 04:28:30;;;;;;;;;5.20;5.20;;;;;24.54;39.82;101600.34;2105014;27;47672;-65
2022/08/10 04:29:31;;;;;;;;;6.40;6.40;;;;;24.54;40.54;101603.94;2104670;27;47711;-62
2022/08/10 04:30:34;;;;;;;;;6.00;6.00;;;;;24.52;39.87;101602.28;2112590;27;47930;-63
2022/08/10 04:31:36;;;;;;;;;4.80;4.60;;;;;24.50;40.00;101601.50;2104309;28;46583;-64
2022/08/10 04:32:58;;;;;;;;;5.00;4.80;;;;;24.49;40.22;101603.34;2102543;28;47722;-64
2022/08/10 04:34:20;;;;;;;;;5.60;5.00;;;;;24.50;40.36;101601.50;2104846;28;46318;-64
2022/08/10 04:35:42;;;;;;;;;4.60;4.60;;;;;24.49;40.50;101599.75;2104247;28;47771;-64
2022/08/10 04:37:04;;;;;;;;;4.60;4.60;;;;;24.50;40.86;101598.78;2101774;28;47561;-63
2022/08/10 04:38:08;;;;;;;;;8.00;8.00;;;;;24.49;40.37;101605.19;2104446;28;46578;-63
2022/08/10 04:39:10;;;;;;;;;7.00;5.80;;;;;24.49;40.25;101605.19;2095765;28;47455;-64
2022/08/10 04:40:11;;;;;;;;;6.40;5.40;;;;;24.47;40.33;101597.16;2095737;28;48175;-63
2022/08/10 04:41:13;;;;;;;;;5.00;5.00;;;;;24.48;40.52;101604.31;2104826;27;47916;-64
2022/08/10 04:42:13;;;;;;;;;4.80;4.80;;;;;24.47;40.53;101605.28;2104670;27;47959;-64
2022/08/10 04:43:14;;;;;;;;;5.60;5.60;;;;;24.47;40.37;101602.59;2104745;27;47452;-62
2022/08/10 04:44:15;;;;;;;;;5.75;5.25;;;;;24.45;40.39;101601.81;2104901;27;47615;-64
2022/08/10 04:45:16;;;;;;;;;8.00;8.00;;;;;24.47;40.51;101605.28;2104712;27;48194;-64
2022/08/10 04:46:16;;;;;;;;;7.50;7.50;;;;;24.48;40.40;101608.88;2104905;27;47043;-63
2022/08/10 04:47:17;;;;;;;;;6.25;6.25;;;;;24.47;40.08;101609.84;2104535;27;47793;-63
2022/08/10 04:48:23;;;;;;;;;6.00;6.00;;;;;24.46;40.46;101605.41;2104881;27;47908;-64
2022/08/10 04:49:23;;;;;;;;;6.40;6.40;;;;;24.45;40.57;101612.69;2104126;28;47671;-64
2022/08/10 04:50:24;;;;;;;;;6.00;6.00;;;;;24.45;40.41;101606.38;2104195;28;47352;-64
2022/08/10 04:51:24;;;;;;;;;5.25;5.25;;;;;24.43;40.46;101611.03;2104702;28;47663;-64
2022/08/10 04:52:24;;;;;;;;;5.50;5.00;;;;;24.42;40.39;101612.88;2104543;27;47645;-64
2022/08/10 04:53:25;;;;;;;;;5.75;5.00;;;;;24.40;40.57;101613.97;2104589;27;47431;-62
2022/08/10 04:54:25;;;;;;;;;5.75;5.50;;;;;24.39;40.52;101614.91;2104711;27;47629;-64
2022/08/10 04:55:26;;;;;;;;;4.25;4.25;;;;;24.36;40.57;101614.13;2104730;27;47471;-65
2022/08/10 04:56:26;;;;;;;;;5.25;5.25;;;;;24.34;40.58;101607.94;2104721;27;47346;-66
2022/08/10 04:57:27;;;;;;;;;5.75;5.75;;;;;24.33;40.35;101614.34;2104821;27;47585;-64
2022/08/10 04:58:27;;;;;;;;;5.50;5.50;;;;;24.32;40.43;101612.59;2104863;27;46167;-66